createdAt,value
2022-11-08T00:00:09.629Z,9.00
2022-11-08T00:02:37.566Z,7.68
2022-11-08T00:05:25.223Z,7.32
2022-11-08T00:08:12.215Z,7.57
2022-11-08T00:10:59.224Z,7.43
2022-11-08T00:13:46.095Z,7.25
2022-11-08T00:16:14.819Z,6.85
2022-11-08T00:18:43.167Z,7.82
2022-11-08T00:21:11.410Z,9.40
2022-11-08T00:23:40.187Z,9.15
2022-11-08T00:26:08.423Z,9.20
2022-11-08T00:28:36.152Z,8.43
2022-11-08T00:31:07.160Z,8.15
2022-11-08T00:33:35.315Z,7.28
2022-11-08T00:36:03.470Z,6.80
2022-11-08T00:38:31.112Z,7.15
2022-11-08T00:40:58.447Z,7.07
2022-11-08T00:43:25.772Z,7.25
2022-11-08T00:45:53.410Z,6.78
2022-11-08T00:48:20.950Z,6.75
2022-11-08T00:50:48.337Z,6.80
2022-11-08T00:53:15.946Z,6.90
2022-11-08T00:55:43.277Z,6.82
2022-11-08T00:58:10.610Z,7.07
2022-11-08T01:00:38.164Z,6.70
2022-11-08T01:03:20.329Z,7.30
2022-11-08T01:05:48.825Z,7.47
2022-11-08T01:08:16.838Z,7.50
2022-11-08T01:10:46.069Z,7.00
2022-11-08T01:13:13.779Z,7.97
2022-11-08T01:15:42.536Z,6.70
2022-11-08T01:18:28.808Z,7.10
2022-11-08T01:20:56.382Z,7.57
2022-11-08T01:23:23.710Z,7.30
2022-11-08T01:25:51.030Z,7.15
2022-11-08T01:28:19.024Z,7.40
2022-11-08T01:30:47.323Z,7.72
2022-11-08T01:33:15.717Z,6.35
2022-11-08T01:35:45.224Z,8.07
2022-11-08T01:38:12.572Z,7.32
2022-11-08T01:40:47.808Z,7.35
2022-11-08T01:43:30.568Z,7.65
2022-11-08T01:46:09.817Z,7.00
2022-11-08T01:48:40.271Z,8.02
2022-11-08T01:51:09.883Z,7.97
2022-11-08T01:53:37.670Z,8.20
2022-11-08T01:56:05.411Z,8.48
2022-11-08T01:58:34.845Z,8.10
2022-11-08T02:01:02.927Z,7.80
2022-11-08T02:03:33.183Z,8.10
2022-11-08T02:06:01.313Z,7.68
2022-11-08T02:08:38.624Z,7.87
2022-11-08T02:11:07.176Z,7.80
2022-11-08T02:13:35.908Z,6.82
2022-11-08T02:16:03.511Z,7.40
2022-11-08T02:18:32.076Z,8.45
2022-11-08T02:21:22.775Z,8.93
2022-11-08T02:23:52.326Z,9.02
2022-11-08T02:26:23.411Z,8.70
2022-11-08T02:28:51.282Z,9.65
2022-11-08T02:31:19.468Z,8.95
2022-11-08T02:33:47.369Z,7.65
2022-11-08T02:36:18.043Z,8.02
2022-11-08T02:38:53.452Z,8.50
2022-11-08T02:41:21.354Z,7.85
2022-11-08T02:43:48.671Z,7.80
2022-11-08T02:46:15.983Z,8.50
2022-11-08T02:48:43.557Z,7.90
2022-11-08T02:51:11.090Z,6.95
2022-11-08T02:53:38.462Z,8.95
2022-11-08T02:56:06.094Z,9.82
2022-11-08T02:58:33.412Z,8.88
2022-11-08T03:01:00.872Z,8.95
2022-11-08T03:03:28.525Z,8.90
2022-11-08T03:05:58.842Z,9.27
2022-11-08T03:08:26.171Z,9.88
2022-11-08T03:27:27.103Z,9.30
2022-11-08T03:29:54.777Z,9.70
2022-11-08T03:32:22.745Z,9.30
2022-11-08T03:34:50.042Z,9.70
2022-11-08T03:37:17.635Z,9.45
2022-11-08T03:39:44.978Z,9.75
2022-11-08T03:42:12.271Z,9.55
2022-11-08T03:44:39.831Z,8.98
2022-11-08T03:47:07.152Z,8.52
2022-11-08T03:49:34.468Z,9.43
2022-11-08T03:52:02.182Z,9.43
2022-11-08T03:54:29.539Z,9.85
2022-11-08T03:56:56.884Z,9.55
2022-11-08T03:59:24.458Z,9.40
2022-11-08T04:01:51.843Z,9.05
2022-11-08T04:04:19.539Z,10.40
2022-11-08T04:06:47.089Z,10.10
2022-11-08T04:09:19.012Z,8.70
2022-11-08T04:12:07.686Z,9.13
2022-11-08T04:14:53.754Z,9.27
2022-11-08T04:17:41.257Z,10.40
2022-11-08T04:20:27.740Z,9.82
2022-11-08T04:22:55.327Z,9.13
2022-11-08T04:25:22.660Z,8.93
2022-11-08T04:27:49.965Z,9.82
2022-11-08T04:30:17.690Z,10.38
2022-11-08T04:32:45.029Z,11.10
2022-11-08T04:35:12.446Z,10.70
2022-11-08T04:37:40.023Z,11.15
2022-11-08T04:40:08.085Z,12.07
2022-11-08T04:42:35.434Z,13.40
2022-11-08T04:45:03.300Z,13.13
2022-11-08T04:47:34.629Z,10.93
2022-11-08T04:50:05.485Z,11.50
2022-11-08T04:52:32.799Z,11.07
2022-11-08T04:55:00.143Z,10.35
2022-11-08T04:57:28.673Z,11.30
2022-11-08T04:59:56.006Z,11.80
2022-11-08T05:02:23.443Z,11.10
2022-11-08T05:04:51.063Z,11.23
2022-11-08T05:07:18.434Z,10.60
2022-11-08T05:09:45.787Z,12.55
2022-11-08T05:12:16.155Z,11.85
2022-11-08T05:14:43.484Z,12.32
2022-11-08T05:17:10.799Z,12.35
2022-11-08T05:19:57.048Z,10.60
2022-11-08T05:22:43.064Z,10.43
2022-11-08T05:25:10.646Z,10.73
2022-11-08T05:27:37.966Z,11.63
2022-11-08T05:30:05.954Z,9.57
2022-11-08T05:32:33.549Z,10.10
2022-11-08T05:35:00.872Z,10.05
2022-11-08T05:37:28.199Z,10.32
2022-11-08T05:39:55.790Z,11.12
2022-11-08T05:42:23.131Z,10.77
2022-11-08T05:44:50.511Z,10.73
2022-11-08T05:47:18.331Z,9.48
2022-11-08T05:49:45.650Z,10.77
2022-11-08T05:52:12.996Z,9.52
2022-11-08T05:54:40.584Z,9.73
2022-11-08T05:57:07.935Z,10.07
2022-11-08T05:59:35.248Z,9.88
2022-11-08T06:02:02.912Z,13.60
2022-11-08T06:04:30.712Z,16.83
2022-11-08T06:06:58.038Z,18.27
2022-11-08T06:09:25.363Z,15.27
2022-11-08T06:11:52.965Z,13.15
2022-11-08T06:14:20.319Z,13.32
2022-11-08T06:16:47.646Z,19.23
2022-11-08T06:19:15.238Z,15.48
2022-11-08T06:21:42.555Z,15.10
2022-11-08T06:24:09.893Z,13.05
2022-11-08T06:26:37.517Z,12.50
2022-11-08T06:29:04.803Z,11.85
2022-11-08T06:31:32.160Z,11.00
2022-11-08T06:33:59.752Z,12.00
2022-11-08T06:36:27.136Z,14.63
2022-11-08T06:38:55.210Z,13.80
2022-11-08T06:41:22.906Z,14.02
2022-11-08T06:43:50.294Z,14.15
2022-11-08T06:46:17.646Z,15.43
2022-11-08T06:48:45.283Z,18.08
2022-11-08T06:51:12.675Z,16.67
2022-11-08T06:53:40.111Z,15.32
2022-11-08T06:56:07.939Z,13.55
2022-11-08T06:58:35.573Z,13.60
2022-11-08T07:01:05.046Z,13.07
2022-11-08T07:03:33.187Z,12.05
2022-11-08T07:06:05.794Z,13.70
2022-11-08T07:08:33.441Z,13.23
2022-11-08T07:11:00.828Z,11.55
2022-11-08T07:13:28.198Z,11.27
2022-11-08T07:15:59.624Z,10.90
2022-11-08T07:18:27.452Z,11.32
2022-11-08T07:20:59.534Z,11.48
2022-11-08T07:23:27.832Z,10.85
2022-11-08T07:25:55.350Z,11.02
2022-11-08T07:28:22.689Z,11.50
2022-11-08T07:30:50.279Z,12.02
2022-11-08T07:33:18.273Z,12.77
2022-11-08T07:35:47.465Z,13.07
2022-11-08T07:38:15.139Z,11.90
2022-11-08T07:40:42.538Z,12.80
2022-11-08T07:43:12.716Z,11.75
2022-11-08T07:45:41.579Z,11.63
2022-11-08T07:48:12.664Z,12.95
2022-11-08T07:50:55.004Z,12.23
2022-11-08T07:53:32.124Z,10.85
2022-11-08T07:56:03.832Z,12.60
2022-11-08T07:58:34.449Z,12.48
2022-11-08T08:01:07.252Z,11.75
2022-11-08T08:03:44.755Z,12.77
2022-11-08T08:06:26.385Z,12.55
2022-11-08T08:08:54.008Z,12.55
2022-11-08T08:11:41.597Z,13.23
2022-11-08T08:14:27.692Z,12.57
2022-11-08T08:16:57.387Z,12.75
2022-11-08T08:22:08.381Z,13.43
2022-11-08T08:24:45.213Z,17.33
2022-11-08T08:27:14.139Z,15.30
2022-11-08T08:29:45.524Z,15.85
2022-11-08T08:32:13.316Z,15.40
2022-11-08T08:34:41.113Z,14.23
2022-11-08T08:37:15.309Z,15.00
2022-11-08T08:39:43.684Z,15.48
2022-11-08T08:42:20.125Z,18.12
2022-11-08T08:44:48.501Z,14.57
2022-11-08T08:47:17.136Z,15.63
2022-11-08T08:49:44.884Z,15.77
2022-11-08T08:52:38.028Z,15.93
2022-11-08T08:55:15.211Z,16.87
2022-11-08T08:57:47.160Z,16.35
2022-11-08T09:03:24.720Z,15.23
2022-11-08T09:05:53.373Z,17.17
2022-11-08T09:08:24.875Z,14.50
2022-11-08T09:10:56.456Z,14.60
2022-11-08T09:13:26.215Z,16.70
2022-11-08T09:15:54.972Z,17.45
2022-11-08T09:18:23.079Z,18.15
2022-11-08T09:20:50.468Z,19.48
2022-11-08T09:23:18.516Z,17.83
2022-11-08T09:25:46.145Z,19.52
2022-11-08T09:28:13.474Z,19.40
2022-11-08T09:30:41.071Z,20.10
2022-11-08T09:33:08.478Z,21.52
2022-11-08T09:35:35.883Z,19.80
2022-11-08T09:38:03.487Z,21.73
2022-11-08T09:40:37.578Z,21.45
2022-11-08T09:43:08.107Z,22.65
2022-11-08T09:45:42.460Z,24.08
2022-11-08T09:48:28.999Z,22.00
2022-11-08T09:50:57.723Z,23.42
2022-11-08T09:53:45.297Z,24.08
2022-11-08T09:56:23.977Z,24.77
2022-11-08T09:59:03.603Z,25.02
2022-11-08T10:01:35.342Z,28.65
2022-11-08T10:04:06.123Z,25.83
2022-11-08T10:07:01.893Z,25.77
2022-11-08T10:09:30.081Z,25.67
2022-11-08T10:12:20.013Z,25.77
2022-11-08T10:15:19.484Z,24.75
2022-11-08T10:18:05.693Z,25.00
2022-11-08T10:20:48.464Z,27.98
2022-11-08T10:23:24.313Z,24.65
2022-11-08T10:25:56.977Z,23.67
2022-11-08T10:28:37.572Z,23.60
2022-11-08T10:31:05.770Z,25.20
2022-11-08T10:33:43.188Z,23.75
2022-11-08T10:36:15.449Z,23.30
2022-11-08T10:38:51.460Z,22.87
2022-11-08T10:41:44.128Z,21.67
2022-11-08T10:44:15.864Z,23.12
2022-11-08T10:46:55.593Z,24.00
2022-11-08T10:49:31.233Z,21.87
2022-11-08T10:52:01.117Z,21.70
2022-11-08T10:54:48.923Z,23.50
2022-11-08T10:57:42.376Z,22.48
2022-11-08T11:00:36.162Z,23.70
2022-11-08T11:03:09.886Z,22.42
2022-11-08T11:05:55.665Z,21.02
2022-11-08T11:08:23.514Z,19.70
2022-11-08T11:10:51.042Z,20.10
2022-11-08T11:13:18.331Z,19.23
2022-11-08T11:15:46.628Z,20.98
2022-11-08T11:18:33.427Z,21.52
2022-11-08T11:21:06.355Z,20.15
2022-11-08T11:23:45.718Z,19.90
2022-11-08T11:26:32.926Z,21.52
2022-11-08T11:29:06.560Z,20.27
2022-11-08T11:31:38.663Z,20.53
2022-11-08T11:34:18.163Z,21.20
2022-11-08T11:36:57.925Z,20.92
2022-11-08T11:39:31.213Z,21.02
2022-11-08T11:42:17.802Z,20.70
2022-11-08T11:45:08.578Z,20.52
2022-11-08T11:47:55.927Z,20.70
2022-11-08T11:50:28.860Z,22.05
2022-11-08T11:52:57.551Z,20.98
2022-11-08T11:55:42.989Z,21.10
2022-11-08T11:58:30.873Z,22.17
2022-11-08T12:01:04.532Z,22.35
2022-11-08T12:03:57.722Z,20.60
2022-11-08T12:07:00.805Z,22.87
2022-11-08T12:09:53.622Z,21.27
2022-11-08T12:12:36.133Z,22.65
2022-11-08T12:15:17.264Z,22.80
2022-11-08T12:17:47.182Z,23.73
2022-11-08T12:20:26.617Z,22.75
2022-11-08T12:23:19.032Z,24.37
2022-11-08T12:25:52.592Z,22.95
2022-11-08T12:28:29.908Z,22.70
2022-11-08T12:31:04.219Z,19.87
2022-11-08T12:33:47.934Z,20.10
2022-11-08T12:36:32.413Z,18.50
2022-11-08T12:39:04.828Z,18.33
2022-11-08T12:41:40.331Z,17.42
2022-11-08T12:44:13.835Z,16.02
2022-11-08T12:46:50.630Z,16.67
2022-11-08T12:49:39.116Z,16.12
2022-11-08T12:52:22.808Z,16.70
2022-11-08T12:55:16.519Z,16.52
2022-11-08T12:57:45.475Z,18.12
2022-11-08T13:00:17.474Z,16.92
2022-11-08T13:03:10.634Z,16.85
2022-11-08T13:05:43.138Z,16.58
2022-11-08T13:08:20.183Z,17.12
2022-11-08T13:10:59.119Z,17.58
2022-11-08T13:13:28.382Z,16.52
2022-11-08T13:16:12.137Z,16.75
2022-11-08T13:18:54.486Z,16.85
2022-11-08T13:21:28.356Z,15.57
2022-11-08T13:24:09.957Z,16.60
2022-11-08T13:26:50.219Z,16.30
2022-11-08T13:29:18.021Z,17.30
2022-11-08T13:31:49.409Z,17.87
2022-11-08T13:34:38.062Z,15.95
2022-11-08T13:37:30.127Z,17.35
2022-11-08T13:40:12.808Z,18.05
2022-11-08T13:42:57.896Z,18.15
2022-11-08T13:45:33.206Z,17.08
2022-11-08T13:48:02.814Z,17.73
2022-11-08T13:50:31.459Z,16.48
2022-11-08T13:53:18.775Z,16.62
2022-11-08T13:55:49.121Z,16.42
2022-11-08T13:58:39.703Z,17.70
2022-11-08T14:01:07.219Z,16.83
2022-11-08T14:03:34.719Z,16.65
2022-11-08T14:06:04.930Z,16.37
2022-11-08T14:09:10.828Z,16.15
2022-11-08T14:12:18.606Z,16.85
2022-11-08T14:14:52.755Z,16.42
2022-11-08T14:17:29.225Z,15.88
2022-11-08T14:19:59.594Z,15.98
2022-11-08T14:22:28.508Z,17.48
2022-11-08T14:25:09.038Z,16.92
2022-11-08T14:27:39.431Z,16.25
2022-11-08T14:30:19.411Z,16.62
2022-11-08T14:32:47.392Z,16.52
2022-11-08T14:35:25.829Z,15.40
2022-11-08T14:37:54.706Z,15.73
2022-11-08T14:40:28.230Z,15.10
2022-11-08T14:42:56.349Z,14.98
2022-11-08T14:45:27.558Z,15.15
2022-11-08T14:48:03.653Z,15.43
2022-11-08T14:50:34.189Z,14.73
2022-11-08T14:53:20.678Z,14.75
2022-11-08T14:55:55.122Z,14.90
2022-11-08T14:58:22.818Z,16.12
2022-11-08T15:00:50.726Z,15.75
2022-11-08T15:03:19.811Z,17.05
2022-11-08T15:05:54.516Z,15.45
2022-11-08T15:08:27.409Z,18.40
2022-11-08T15:11:28.679Z,17.50
2022-11-08T15:14:05.458Z,18.85
2022-11-08T15:16:43.731Z,17.83
2022-11-08T15:19:37.324Z,18.83
2022-11-08T15:22:28.964Z,19.73
2022-11-08T15:25:15.722Z,19.27
2022-11-08T15:27:57.762Z,20.05
2022-11-08T15:30:31.456Z,21.48
2022-11-08T15:32:59.229Z,21.12
2022-11-08T15:35:47.135Z,20.83
2022-11-08T15:38:31.022Z,23.25
2022-11-08T15:41:02.272Z,22.98
2022-11-08T15:43:32.638Z,24.15
2022-11-08T15:46:01.143Z,25.40
2022-11-08T15:48:28.987Z,27.27
2022-11-08T15:50:56.924Z,28.98
2022-11-08T15:53:26.550Z,26.60
2022-11-08T15:55:57.681Z,29.10
2022-11-08T15:58:44.981Z,25.33
2022-11-08T16:01:20.820Z,28.77
2022-11-08T16:03:48.877Z,26.87
2022-11-08T16:06:16.343Z,26.30
2022-11-08T16:08:43.890Z,28.50
2022-11-08T16:11:21.157Z,27.02
2022-11-08T16:13:51.474Z,25.60
2022-11-08T16:16:20.170Z,25.65
2022-11-08T16:18:48.086Z,25.05
2022-11-08T16:21:15.853Z,24.77
2022-11-08T16:23:43.997Z,26.87
2022-11-08T16:26:17.419Z,24.58
2022-11-08T16:28:45.167Z,27.15
2022-11-08T16:31:17.792Z,28.33
2022-11-08T16:33:46.571Z,28.60
2022-11-08T16:36:20.740Z,28.55
2022-11-08T16:38:56.596Z,29.67
2022-11-08T16:41:25.153Z,27.65
2022-11-08T16:43:53.568Z,28.80
2022-11-08T16:46:22.231Z,26.92
2022-11-08T16:48:54.840Z,26.70
2022-11-08T16:51:32.181Z,29.40
2022-11-08T16:54:02.723Z,28.23
2022-11-08T16:56:30.956Z,26.17
2022-11-08T16:58:58.398Z,27.75
2022-11-08T17:01:31.732Z,27.27
2022-11-08T17:03:59.524Z,28.27
2022-11-08T17:06:27.319Z,28.05
2022-11-08T17:08:55.100Z,30.98
2022-11-08T17:11:24.278Z,30.70
2022-11-08T17:13:53.165Z,29.20
2022-11-08T17:16:21.190Z,29.55
2022-11-08T17:18:53.075Z,29.63
2022-11-08T17:24:09.436Z,29.05
2022-11-08T17:26:36.778Z,30.00
2022-11-08T17:29:06.515Z,29.35
2022-11-08T17:31:34.478Z,27.75
2022-11-08T17:34:02.168Z,31.12
2022-11-08T17:36:30.004Z,31.17
2022-11-08T17:38:58.662Z,30.80
2022-11-08T17:41:26.475Z,31.17
2022-11-08T17:43:54.479Z,29.70
2022-11-08T17:46:22.814Z,30.48
2022-11-08T17:48:50.844Z,30.30
2022-11-08T17:51:18.444Z,31.60
2022-11-08T17:53:46.579Z,29.90
2022-11-08T17:56:14.516Z,33.20
2022-11-08T17:58:42.309Z,32.72
2022-11-08T18:01:10.775Z,34.50
2022-11-08T18:03:38.694Z,37.45
2022-11-08T18:06:11.776Z,36.35
2022-11-08T18:08:40.614Z,35.47
2022-11-08T18:11:08.976Z,34.55
2022-11-08T18:13:37.512Z,32.92
2022-11-08T18:16:14.277Z,32.20
2022-11-08T18:18:43.380Z,29.80
2022-11-08T18:21:12.447Z,30.02
2022-11-08T18:23:44.721Z,31.52
2022-11-08T18:26:15.539Z,30.77
2022-11-08T18:28:44.793Z,31.08
2022-11-08T18:31:16.225Z,29.48
2022-11-08T18:33:47.816Z,29.40
2022-11-08T18:36:22.002Z,31.17
2022-11-08T18:38:51.870Z,31.20
2022-11-08T18:41:23.095Z,29.27
2022-11-08T18:43:51.506Z,28.95
2022-11-08T18:46:22.227Z,31.67
2022-11-08T18:48:50.833Z,31.77
2022-11-08T18:51:20.930Z,29.25
2022-11-08T18:53:49.632Z,31.62
2022-11-08T18:56:20.444Z,32.88
2022-11-08T18:58:49.342Z,33.63
2022-11-08T19:01:17.800Z,32.47
2022-11-08T19:03:46.385Z,32.08
2022-11-08T19:06:14.396Z,31.73
2022-11-08T19:08:42.652Z,31.35
2022-11-08T19:11:12.352Z,31.05
2022-11-08T19:13:40.903Z,31.45
2022-11-08T19:16:14.362Z,31.02
2022-11-08T19:18:43.040Z,30.42
2022-11-08T19:21:15.655Z,29.98
2022-11-08T19:23:43.933Z,29.67
2022-11-08T19:26:15.028Z,28.85
2022-11-08T19:28:46.050Z,30.52
2022-11-08T19:31:16.344Z,29.52
2022-11-08T19:33:45.121Z,31.45
2022-11-08T19:36:15.414Z,29.50
2022-11-08T19:38:44.484Z,31.75
2022-11-08T19:41:14.844Z,31.50
2022-11-08T19:43:44.339Z,30.40
2022-11-08T19:46:15.482Z,30.70
2022-11-08T19:48:45.653Z,31.40
2022-11-08T19:51:17.675Z,30.12
2022-11-08T19:53:46.415Z,30.48
2022-11-08T19:56:17.375Z,32.60
2022-11-08T19:58:46.012Z,30.23
2022-11-08T20:01:17.596Z,31.35
2022-11-08T20:03:46.452Z,29.80
2022-11-08T20:06:15.965Z,30.08
2022-11-08T20:08:47.351Z,30.95
2022-11-08T20:11:25.933Z,30.73
2022-11-08T20:13:53.693Z,30.95
2022-11-08T20:16:27.253Z,29.77
2022-11-08T20:18:56.890Z,31.17
2022-11-08T20:21:24.811Z,31.60
2022-11-08T20:23:52.329Z,31.80
2022-11-08T20:26:22.513Z,30.88
2022-11-08T20:28:56.517Z,28.52
2022-11-08T20:31:25.622Z,31.23
2022-11-08T20:33:54.996Z,30.73
2022-11-08T20:36:24.472Z,29.73
2022-11-08T20:38:58.360Z,29.73
2022-11-08T20:41:30.420Z,29.20
2022-11-08T20:43:58.519Z,30.52
2022-11-08T20:46:27.578Z,30.85
2022-11-08T20:49:00.823Z,29.35
2022-11-08T20:51:30.879Z,31.37
2022-11-08T20:54:01.153Z,29.50
2022-11-08T20:56:32.039Z,28.87
2022-11-08T20:59:01.787Z,29.15
2022-11-08T21:01:30.906Z,28.62
2022-11-08T21:03:58.838Z,28.25
2022-11-08T21:06:28.434Z,29.40
2022-11-08T21:08:59.962Z,28.40
2022-11-08T21:11:31.269Z,28.08
2022-11-08T21:13:59.097Z,28.12
2022-11-08T21:16:30.552Z,28.80
2022-11-08T21:19:01.355Z,29.23
2022-11-08T21:21:29.028Z,28.00
2022-11-08T21:23:56.708Z,30.08
2022-11-08T21:26:25.293Z,30.45
2022-11-08T21:28:53.785Z,26.98
2022-11-08T21:31:21.437Z,28.25
2022-11-08T21:33:49.764Z,28.08
2022-11-08T21:36:18.359Z,29.12
2022-11-08T21:38:47.954Z,29.50
2022-11-08T21:41:15.962Z,29.02
2022-11-08T21:43:44.649Z,28.52
2022-11-08T21:46:18.352Z,28.75
2022-11-08T21:48:46.755Z,28.17
